createdAt,value
2023-04-15T00:01:45.741Z,16.27
2023-04-15T00:04:13.686Z,22.50
2023-04-15T00:06:41.836Z,12.63
2023-04-15T00:09:09.720Z,20.42
2023-04-15T00:11:37.569Z,14.60
2023-04-15T00:14:06.291Z,14.10
2023-04-15T00:16:34.117Z,18.55
2023-04-15T00:19:03.525Z,12.05
2023-04-15T00:21:32.511Z,16.50
2023-04-15T00:24:00.433Z,14.32
2023-04-15T00:26:28.485Z,15.57
2023-04-15T00:28:56.774Z,10.77
2023-04-15T00:31:24.614Z,11.77
2023-04-15T00:33:53.211Z,12.88
2023-04-15T00:36:24.536Z,14.85
2023-04-15T00:38:52.359Z,17.08
2023-04-15T00:41:23.060Z,15.02
2023-04-15T00:43:51.243Z,18.17
2023-04-15T00:46:21.988Z,12.00
2023-04-15T00:48:50.157Z,12.70
2023-04-15T00:51:18.006Z,14.23
2023-04-15T00:53:47.300Z,13.93
2023-04-15T00:56:15.409Z,15.30
2023-04-15T00:58:43.279Z,14.55
2023-04-15T01:01:11.483Z,10.55
2023-04-15T01:03:39.328Z,16.52
2023-04-15T01:06:07.558Z,16.23
2023-04-15T01:08:35.498Z,13.18
2023-04-15T01:11:05.392Z,15.05
2023-04-15T01:13:35.365Z,12.20
2023-04-15T01:16:03.933Z,14.63
2023-04-15T01:18:32.801Z,15.85
2023-04-15T01:21:03.667Z,17.05
2023-04-15T01:23:32.657Z,13.10
2023-04-15T01:26:02.002Z,13.70
2023-04-15T01:28:29.890Z,16.33
2023-04-15T01:31:09.185Z,11.38
2023-04-15T01:33:38.641Z,16.00
2023-04-15T01:36:09.697Z,10.52
2023-04-15T01:38:38.118Z,12.82
2023-04-15T01:41:08.206Z,14.40
2023-04-15T01:43:37.205Z,12.77
2023-04-15T01:46:05.209Z,13.65
2023-04-15T01:48:33.902Z,12.77
2023-04-15T01:51:02.214Z,14.70
2023-04-15T01:53:30.150Z,12.32
2023-04-15T01:55:57.934Z,17.23
2023-04-15T01:58:27.262Z,17.70
2023-04-15T02:00:56.327Z,18.17
2023-04-15T02:03:25.764Z,15.88
2023-04-15T02:05:54.128Z,14.85
2023-04-15T02:08:22.986Z,14.35
2023-04-15T02:10:50.957Z,14.55
2023-04-15T02:13:19.374Z,13.95
2023-04-15T02:15:52.492Z,14.50
2023-04-15T02:18:21.528Z,14.77
2023-04-15T02:20:49.914Z,14.57
2023-04-15T02:23:17.687Z,16.90
2023-04-15T02:25:53.784Z,17.48
2023-04-15T02:28:22.458Z,14.68
2023-04-15T02:30:53.576Z,16.40
2023-04-15T02:33:23.353Z,18.05
2023-04-15T02:35:51.556Z,12.95
2023-04-15T02:38:19.277Z,19.50
2023-04-15T02:40:49.785Z,17.08
2023-04-15T02:43:18.261Z,21.45
2023-04-15T02:45:47.042Z,18.77
2023-04-15T02:48:19.432Z,14.05
2023-04-15T02:50:47.926Z,15.80
2023-04-15T02:53:17.489Z,17.05
2023-04-15T02:55:45.327Z,17.80
2023-04-15T02:58:13.144Z,16.30
2023-04-15T03:00:40.993Z,15.73
2023-04-15T03:03:09.081Z,17.25
2023-04-15T03:05:39.688Z,14.80
2023-04-15T03:08:07.517Z,17.60
2023-04-15T03:10:35.300Z,17.67
2023-04-15T03:13:03.183Z,19.35
2023-04-15T03:15:33.839Z,16.52
2023-04-15T03:18:02.372Z,18.83
2023-04-15T03:20:30.365Z,21.98
2023-04-15T03:22:59.679Z,17.02
2023-04-15T03:25:27.655Z,18.52
2023-04-15T03:27:55.717Z,16.48
2023-04-15T03:30:23.522Z,19.77
2023-04-15T03:32:52.006Z,18.42
2023-04-15T03:35:19.866Z,18.30
2023-04-15T03:37:49.150Z,16.25
2023-04-15T03:40:18.372Z,15.80
2023-04-15T03:42:46.064Z,19.30
2023-04-15T03:45:13.912Z,19.65
2023-04-15T03:47:41.714Z,21.42
2023-04-15T03:50:10.117Z,19.20
2023-04-15T03:52:38.026Z,21.23
2023-04-15T03:55:06.661Z,19.75
2023-04-15T03:57:38.924Z,18.77
2023-04-15T04:00:09.311Z,18.88
2023-04-15T04:02:39.793Z,18.25
2023-04-15T04:05:08.213Z,19.05
2023-04-15T04:07:36.043Z,19.60
2023-04-15T04:10:04.973Z,22.02
2023-04-15T04:12:32.684Z,23.30
2023-04-15T04:15:01.864Z,23.23
2023-04-15T04:17:29.720Z,20.70
2023-04-15T04:19:57.706Z,22.08
2023-04-15T04:22:25.734Z,18.27
2023-04-15T04:24:53.672Z,18.58
2023-04-15T04:27:21.389Z,16.60
2023-04-15T04:29:49.913Z,17.40
2023-04-15T04:32:19.096Z,21.50
2023-04-15T04:34:47.201Z,18.45
2023-04-15T04:37:15.222Z,17.77
2023-04-15T04:39:43.054Z,21.35
2023-04-15T04:42:10.807Z,17.45
2023-04-15T04:44:39.221Z,21.08
2023-04-15T04:47:07.662Z,19.63
2023-04-15T04:49:36.910Z,20.60
2023-04-15T04:52:04.885Z,18.20
2023-04-15T04:54:32.640Z,19.33
2023-04-15T04:57:00.780Z,23.77
2023-04-15T04:59:28.585Z,18.02
2023-04-15T05:01:57.119Z,18.75
2023-04-15T05:04:25.065Z,18.13
2023-04-15T05:06:54.379Z,20.90
2023-04-15T05:09:22.397Z,20.42
2023-04-15T05:11:50.464Z,21.20
2023-04-15T05:14:18.232Z,16.90
2023-04-15T05:16:46.055Z,22.33
2023-04-15T05:19:13.781Z,20.75
2023-04-15T05:21:41.624Z,20.60
2023-04-15T05:24:10.695Z,19.73
2023-04-15T05:26:38.395Z,18.00
2023-04-15T05:29:06.369Z,16.88
2023-04-15T05:31:34.392Z,16.63
2023-04-15T05:34:02.585Z,16.27
2023-04-15T05:36:31.473Z,13.50
2023-04-15T05:38:59.589Z,14.25
2023-04-15T05:41:29.039Z,15.65
2023-04-15T05:43:57.012Z,14.77
2023-04-15T05:46:24.892Z,14.45
2023-04-15T05:48:54.668Z,15.73
2023-04-15T05:51:23.443Z,12.55
2023-04-15T05:53:51.285Z,13.48
2023-04-15T05:56:20.386Z,13.18
2023-04-15T05:58:50.550Z,15.50
2023-04-15T06:01:19.419Z,15.68
2023-04-15T06:03:47.476Z,18.38
2023-04-15T06:06:15.478Z,16.65
2023-04-15T06:08:43.287Z,18.27
2023-04-15T06:11:11.011Z,19.70
2023-04-15T06:13:38.734Z,17.58
2023-04-15T06:16:08.639Z,18.67
2023-04-15T06:18:36.374Z,14.10
2023-04-15T06:21:04.373Z,19.17
2023-04-15T06:23:32.343Z,16.65
2023-04-15T06:26:00.102Z,19.20
2023-04-15T06:28:27.808Z,17.23
2023-04-15T06:30:56.416Z,20.80
2023-04-15T06:33:25.780Z,15.25
2023-04-15T06:35:53.601Z,17.05
2023-04-15T06:38:21.447Z,17.45
2023-04-15T06:40:49.411Z,16.30
2023-04-15T06:43:17.136Z,16.70
2023-04-15T06:45:44.986Z,18.05
2023-04-15T06:48:13.120Z,16.02
2023-04-15T06:50:42.357Z,23.85
2023-04-15T06:53:10.144Z,17.25
2023-04-15T06:55:37.902Z,15.35
2023-04-15T06:58:05.834Z,22.42
2023-04-15T07:00:33.988Z,18.92
2023-04-15T07:03:03.707Z,19.63
2023-04-15T07:05:32.609Z,18.52
2023-04-15T07:08:01.934Z,18.30
2023-04-15T07:10:29.974Z,14.13
2023-04-15T07:12:58.290Z,16.63
2023-04-15T07:15:26.270Z,16.42
2023-04-15T07:17:54.469Z,14.60
2023-04-15T07:20:22.868Z,17.83
2023-04-15T07:22:50.652Z,13.82
2023-04-15T07:25:20.003Z,11.85
2023-04-15T07:27:47.861Z,14.65
2023-04-15T07:30:16.158Z,14.65
2023-04-15T07:32:44.240Z,13.82
2023-04-15T07:35:12.323Z,11.63
2023-04-15T07:37:40.506Z,14.65
2023-04-15T07:40:09.510Z,12.52
2023-04-15T07:42:41.165Z,14.40
2023-04-15T07:45:10.011Z,14.60
2023-04-15T07:47:37.740Z,12.63
2023-04-15T07:50:07.031Z,13.10
2023-04-15T07:52:39.245Z,12.88
2023-04-15T07:55:08.382Z,8.73
2023-04-15T07:57:36.239Z,16.42
2023-04-15T08:00:07.669Z,11.38
2023-04-15T08:02:42.756Z,16.52
2023-04-15T08:05:11.226Z,16.02
2023-04-15T08:07:39.368Z,14.15
2023-04-15T08:10:08.325Z,10.95
2023-04-15T08:12:36.263Z,15.00
2023-04-15T08:15:06.709Z,11.63
2023-04-15T08:17:34.627Z,8.98
2023-04-15T08:20:02.572Z,9.65
2023-04-15T08:22:30.463Z,7.55
2023-04-15T08:24:58.158Z,10.13
2023-04-15T08:27:25.860Z,13.02
2023-04-15T08:29:53.673Z,7.25
2023-04-15T08:32:22.884Z,10.88
2023-04-15T08:34:50.738Z,7.85
2023-04-15T08:37:18.697Z,7.32
2023-04-15T08:39:46.582Z,7.30
2023-04-15T08:42:18.492Z,11.77
2023-04-15T08:44:48.873Z,7.38
2023-04-15T08:47:25.446Z,7.43
2023-04-15T08:49:56.814Z,8.05
2023-04-15T08:52:27.418Z,8.63
2023-04-15T08:54:59.287Z,4.40
2023-04-15T08:57:28.586Z,7.95
2023-04-15T08:59:57.940Z,6.63
2023-04-15T09:02:28.504Z,4.68
2023-04-15T09:04:56.775Z,6.68
2023-04-15T09:07:24.535Z,7.43
2023-04-15T09:09:52.853Z,11.60
2023-04-15T09:12:20.889Z,10.43
2023-04-15T09:14:49.632Z,6.13
2023-04-15T09:17:21.076Z,7.63
2023-04-15T09:19:50.489Z,7.70
2023-04-15T09:22:18.589Z,6.57
2023-04-15T09:24:46.676Z,4.28
2023-04-15T09:27:17.469Z,4.53
2023-04-15T09:29:45.287Z,7.20
2023-04-15T09:32:14.636Z,10.13
2023-04-15T09:34:42.437Z,10.65
2023-04-15T09:37:24.298Z,10.48
2023-04-15T09:39:59.325Z,7.18
2023-04-15T09:42:28.299Z,4.68
2023-04-15T09:44:56.335Z,6.00
2023-04-15T09:47:31.405Z,21.17
2023-04-15T09:50:00.370Z,12.52
2023-04-15T09:52:30.015Z,8.00
2023-04-15T09:54:59.968Z,8.00
2023-04-15T09:57:35.294Z,5.80
2023-04-15T10:00:03.692Z,5.00
2023-04-15T10:02:35.252Z,5.50
2023-04-15T10:05:04.144Z,4.43
2023-04-15T10:07:34.000Z,5.95
2023-04-15T10:10:03.829Z,6.03
2023-04-15T10:12:33.520Z,11.05
2023-04-15T10:15:06.616Z,7.95
2023-04-15T10:17:36.991Z,9.13
2023-04-15T10:20:07.691Z,6.53
2023-04-15T10:22:38.770Z,16.42
2023-04-15T10:25:07.392Z,7.85
2023-04-15T10:27:35.532Z,11.65
2023-04-15T10:30:04.835Z,5.15
2023-04-15T10:32:33.220Z,10.15
2023-04-15T10:35:02.359Z,10.20
2023-04-15T10:37:37.370Z,8.38
2023-04-15T10:40:28.322Z,6.95
2023-04-15T10:42:57.937Z,8.23
2023-04-15T10:45:28.672Z,14.57
2023-04-15T10:47:57.852Z,8.13
2023-04-15T10:50:28.648Z,8.25
2023-04-15T10:52:58.609Z,14.15
2023-04-15T10:55:27.782Z,15.95
2023-04-15T10:57:59.493Z,10.55
2023-04-15T11:00:29.579Z,7.22
2023-04-15T11:02:59.368Z,11.35
2023-04-15T11:05:50.637Z,10.43
2023-04-15T11:08:20.511Z,10.55
2023-04-15T11:10:56.543Z,9.55
2023-04-15T11:13:29.402Z,14.70
2023-04-15T11:16:04.511Z,7.18
2023-04-15T11:18:34.250Z,11.32
2023-04-15T11:21:07.247Z,9.77
2023-04-15T11:23:38.814Z,10.52
2023-04-15T11:26:09.760Z,19.95
2023-04-15T11:28:40.132Z,8.60
2023-04-15T11:31:10.822Z,11.80
2023-04-15T11:33:40.485Z,8.73
2023-04-15T11:36:08.629Z,13.15
2023-04-15T11:38:38.050Z,13.23
2023-04-15T11:41:05.811Z,17.88
2023-04-15T11:43:35.442Z,7.28
2023-04-15T11:46:05.065Z,14.30
2023-04-15T11:48:34.403Z,11.82
2023-04-15T11:51:03.632Z,10.77
2023-04-15T11:53:41.290Z,15.18
2023-04-15T11:56:10.584Z,12.45
2023-04-15T11:58:39.671Z,21.38
2023-04-15T12:01:08.430Z,31.63
2023-04-15T12:03:41.198Z,13.48
2023-04-15T12:06:19.429Z,11.23
2023-04-15T12:09:09.306Z,13.63
2023-04-15T12:11:42.536Z,10.65
2023-04-15T12:14:13.649Z,8.40
2023-04-15T12:16:48.177Z,11.52
2023-04-15T12:19:18.727Z,10.65
2023-04-15T12:21:49.245Z,10.60
2023-04-15T12:24:22.760Z,10.15
2023-04-15T12:29:19.285Z,11.15
2023-04-15T12:31:52.094Z,13.93
2023-04-15T12:34:26.800Z,9.25
2023-04-15T12:36:54.972Z,13.52
2023-04-15T12:39:25.562Z,20.67
2023-04-15T12:41:53.611Z,9.43
2023-04-15T12:44:23.982Z,10.32
2023-04-15T12:46:52.906Z,13.48
2023-04-15T12:49:21.774Z,18.25
2023-04-15T12:51:50.644Z,12.13
2023-04-15T12:54:18.938Z,12.93
2023-04-15T12:56:49.796Z,16.30
2023-04-15T12:59:18.820Z,7.88
2023-04-15T13:01:47.313Z,11.25
2023-04-15T13:04:15.661Z,13.18
2023-04-15T13:06:44.044Z,7.95
2023-04-15T13:09:12.020Z,10.35
2023-04-15T13:11:39.896Z,13.57
2023-04-15T13:14:11.478Z,14.32
2023-04-15T13:16:39.821Z,15.35
2023-04-15T13:19:07.969Z,13.65
2023-04-15T13:21:36.784Z,12.65
2023-04-15T13:24:07.247Z,11.27
2023-04-15T13:26:35.328Z,16.65
2023-04-15T13:29:03.138Z,16.00
2023-04-15T13:31:32.511Z,12.55
2023-04-15T13:34:00.614Z,10.40
2023-04-15T13:36:28.477Z,12.95
2023-04-15T13:38:57.129Z,14.02
2023-04-15T13:41:25.159Z,12.43
2023-04-15T13:43:53.052Z,11.70
2023-04-15T13:46:20.958Z,10.88
2023-04-15T13:48:50.299Z,21.55
2023-04-15T13:51:18.136Z,10.73
2023-04-15T13:53:46.011Z,10.00
2023-04-15T13:56:13.806Z,15.38
2023-04-15T13:58:42.075Z,10.18
2023-04-15T14:01:10.161Z,12.55
2023-04-15T14:03:38.454Z,15.80
2023-04-15T14:06:08.005Z,16.88
2023-04-15T14:08:35.805Z,11.73
2023-04-15T14:11:03.915Z,11.23
2023-04-15T14:13:31.889Z,9.50
2023-04-15T14:15:59.657Z,10.77
2023-04-15T14:18:27.596Z,10.60
2023-04-15T14:20:55.872Z,15.50
2023-04-15T14:23:24.997Z,16.33
2023-04-15T14:25:52.996Z,11.40
2023-04-15T14:28:20.793Z,14.23
2023-04-15T14:30:48.660Z,16.33
2023-04-15T14:33:16.597Z,11.20
2023-04-15T14:35:44.433Z,15.27
2023-04-15T14:38:12.308Z,14.05
2023-04-15T14:40:42.289Z,10.02
2023-04-15T14:43:10.217Z,18.58
2023-04-15T14:45:40.595Z,16.20
2023-04-15T14:48:12.565Z,9.75
2023-04-15T14:50:40.898Z,12.35
2023-04-15T14:53:08.635Z,18.52
2023-04-15T14:55:36.554Z,17.75
2023-04-15T14:58:06.072Z,12.95
2023-04-15T15:00:33.876Z,18.73
2023-04-15T15:03:01.832Z,11.50
2023-04-15T15:05:30.005Z,11.93
2023-04-15T15:07:57.960Z,11.85
2023-04-15T15:10:48.345Z,13.38
2023-04-15T15:13:15.736Z,19.52
2023-04-15T15:15:43.809Z,21.80
2023-04-15T15:18:11.763Z,11.02
2023-04-15T15:20:39.625Z,22.13
2023-04-15T15:23:07.397Z,9.25
2023-04-15T15:25:35.357Z,14.73
2023-04-15T15:28:03.317Z,15.13
2023-04-15T15:30:32.599Z,17.88
2023-04-15T15:33:00.752Z,19.00
2023-04-15T15:35:28.889Z,20.58
2023-04-15T15:37:57.107Z,15.05
2023-04-15T15:40:25.782Z,18.42
2023-04-15T15:42:53.525Z,18.58
2023-04-15T15:45:21.316Z,13.38
2023-04-15T15:47:51.538Z,15.73
2023-04-15T15:50:19.514Z,25.15
2023-04-15T15:52:47.392Z,16.85
2023-04-15T15:55:15.204Z,17.17
2023-04-15T15:57:42.969Z,23.35
2023-04-15T16:00:12.959Z,19.75
2023-04-15T16:05:13.222Z,16.98
2023-04-15T16:07:41.035Z,24.77
2023-04-15T16:10:10.209Z,19.35
2023-04-15T16:12:37.973Z,23.30
2023-04-15T16:15:06.996Z,25.98
2023-04-15T16:17:34.959Z,26.65
2023-04-15T16:20:05.584Z,18.00
2023-04-15T16:22:35.085Z,21.42
2023-04-15T16:25:03.831Z,21.85
2023-04-15T16:27:31.719Z,22.15
2023-04-15T16:29:59.658Z,25.27
2023-04-15T16:32:27.544Z,25.48
2023-04-15T16:34:55.792Z,28.10
2023-04-15T16:37:23.624Z,23.80
2023-04-15T16:39:52.717Z,29.70
2023-04-15T16:42:20.440Z,25.85
2023-04-15T16:44:48.207Z,32.60
2023-04-15T16:47:16.018Z,26.25
2023-04-15T16:49:43.835Z,29.95
2023-04-15T16:52:11.789Z,37.60
2023-04-15T16:54:41.411Z,28.50
2023-04-15T16:57:10.838Z,20.42
2023-04-15T16:59:39.052Z,22.85
2023-04-15T17:02:06.912Z,31.05
2023-04-15T17:04:34.956Z,37.13
2023-04-15T17:07:03.104Z,37.67
2023-04-15T17:09:30.881Z,26.20
2023-04-15T17:11:58.656Z,33.03
2023-04-15T17:14:28.647Z,27.17
2023-04-15T17:16:56.887Z,23.23
2023-04-15T17:19:24.757Z,30.20
2023-04-15T17:21:54.841Z,29.70
2023-04-15T17:24:22.930Z,38.78
2023-04-15T17:26:50.727Z,33.08
2023-04-15T17:29:18.642Z,28.90
2023-04-15T17:31:47.827Z,36.60
2023-04-15T17:34:16.235Z,44.78
2023-04-15T17:36:44.121Z,29.55
2023-04-15T17:39:13.994Z,27.63
2023-04-15T17:41:41.867Z,34.95
2023-04-15T17:44:09.622Z,25.85
2023-04-15T17:46:37.454Z,29.85
2023-04-15T17:49:07.001Z,20.33
2023-04-15T17:51:34.888Z,24.63
2023-04-15T17:54:08.904Z,25.38
2023-04-15T17:56:36.715Z,31.40
2023-04-15T17:59:04.634Z,30.23
2023-04-15T18:01:32.526Z,40.08
2023-04-15T18:04:00.644Z,40.40
2023-04-15T18:06:30.040Z,26.65
2023-04-15T18:08:58.036Z,26.33
2023-04-15T18:11:26.049Z,34.47
2023-04-15T18:13:53.809Z,34.75
2023-04-15T18:16:21.738Z,31.38
2023-04-15T18:18:49.470Z,35.30
2023-04-15T18:21:17.303Z,33.78
2023-04-15T18:23:46.521Z,27.27
2023-04-15T18:26:14.860Z,29.17
2023-04-15T18:28:42.797Z,36.50
2023-04-15T18:31:10.863Z,45.70
2023-04-15T18:33:38.861Z,35.67
2023-04-15T18:36:07.215Z,37.00
2023-04-15T18:38:35.556Z,36.65
2023-04-15T18:41:05.406Z,36.35
2023-04-15T18:43:33.316Z,34.33
2023-04-15T18:46:01.886Z,46.10
2023-04-15T18:48:30.283Z,40.05
2023-04-15T18:50:58.482Z,42.28
2023-04-15T18:53:27.031Z,46.22
2023-04-15T18:55:56.470Z,50.55
2023-04-15T18:58:25.675Z,39.30
2023-04-15T19:00:53.504Z,34.80
2023-04-15T19:03:21.517Z,38.63
2023-04-15T19:05:49.453Z,48.85
2023-04-15T19:08:17.316Z,51.38
2023-04-15T19:10:45.196Z,53.45
2023-04-15T19:13:12.983Z,48.63
2023-04-15T19:15:42.081Z,45.22
2023-04-15T19:18:10.618Z,48.65
2023-04-15T19:20:40.045Z,47.08
2023-04-15T19:23:08.371Z,50.92
2023-04-15T19:25:36.207Z,44.83
2023-04-15T19:28:03.913Z,46.15
2023-04-15T19:30:33.284Z,50.28
2023-04-15T19:33:02.598Z,49.28
2023-04-15T19:35:30.485Z,49.80
2023-04-15T19:37:58.301Z,48.72
2023-04-15T19:40:26.038Z,50.22
2023-04-15T19:42:53.886Z,45.53
2023-04-15T19:45:21.880Z,46.88
2023-04-15T19:47:49.756Z,56.80
2023-04-15T19:50:24.752Z,56.60
2023-04-15T19:52:52.573Z,49.47
2023-04-15T19:55:20.414Z,53.05
2023-04-15T19:57:48.142Z,58.65
2023-04-15T20:00:16.097Z,53.42
2023-04-15T20:02:44.013Z,67.45
2023-04-15T20:05:11.985Z,58.88
2023-04-15T20:07:42.498Z,57.42
2023-04-15T20:10:13.074Z,64.78
2023-04-15T20:12:51.626Z,62.88
2023-04-15T20:15:21.557Z,74.10
2023-04-15T20:17:49.370Z,69.05
2023-04-15T20:20:17.318Z,65.78
2023-04-15T20:22:46.905Z,79.70
2023-04-15T20:25:14.845Z,77.47
2023-04-15T20:27:42.669Z,64.30
2023-04-15T20:30:11.357Z,77.15
2023-04-15T20:32:39.209Z,75.28
2023-04-15T20:35:07.882Z,76.28
2023-04-15T20:37:36.294Z,77.32
2023-04-15T20:40:06.550Z,71.78
2023-04-15T20:42:34.903Z,91.57
2023-04-15T20:45:02.854Z,78.25
2023-04-15T20:47:31.019Z,79.25
2023-04-15T20:49:58.872Z,74.60
2023-04-15T20:52:26.718Z,75.13
2023-04-15T20:54:54.408Z,77.88
2023-04-15T20:57:24.566Z,74.53
2023-04-15T20:59:52.344Z,76.43
2023-04-15T21:02:20.254Z,79.15
2023-04-15T21:04:48.163Z,81.22
2023-04-15T21:07:15.888Z,88.53
2023-04-15T21:09:43.804Z,79.90
2023-04-15T21:12:12.290Z,64.97
2023-04-15T21:14:41.595Z,68.55
2023-04-15T21:17:11.113Z,66.65
2023-04-15T21:19:40.413Z,68.38
2023-04-15T21:22:08.172Z,64.45
2023-04-15T21:24:35.931Z,68.88
2023-04-15T21:27:03.841Z,59.83
2023-04-15T21:29:31.607Z,72.95
2023-04-15T21:32:01.017Z,68.38
2023-04-15T21:34:28.978Z,59.92
2023-04-15T21:36:56.808Z,71.65
2023-04-15T21:39:24.866Z,71.60
2023-04-15T21:41:52.779Z,67.22
2023-04-15T21:44:20.679Z,60.85
2023-04-15T21:46:48.477Z,69.57
2023-04-15T21:49:17.656Z,67.78
2023-04-15T21:51:46.507Z,64.25
2023-04-15T21:54:14.313Z,64.35
2023-04-15T21:56:42.361Z,61.22
2023-04-15T21:59:10.139Z,66.65
2023-04-15T22:01:37.975Z,68.80
2023-04-15T22:04:07.505Z,71.30
2023-04-15T22:06:36.960Z,69.07
2023-04-15T22:09:04.953Z,68.35
2023-04-15T22:11:32.886Z,72.80
2023-04-15T22:14:00.778Z,64.57
2023-04-15T22:16:29.159Z,77.28
2023-04-15T22:18:57.022Z,66.60
2023-04-15T22:21:25.262Z,67.03
2023-04-15T22:24:33.177Z,74.97
2023-04-15T22:26:42.937Z,72.00
2023-04-15T22:29:11.103Z,69.53
2023-04-15T22:31:39.084Z,71.40
2023-04-15T22:34:06.891Z,72.63
2023-04-15T22:36:34.652Z,71.90
2023-04-15T22:39:04.101Z,63.78
2023-04-15T22:41:32.161Z,69.40
2023-04-15T22:44:00.165Z,76.97
2023-04-15T22:46:27.926Z,78.57
2023-04-15T22:48:55.796Z,80.80
2023-04-15T22:51:24.167Z,62.80
2023-04-15T22:53:51.976Z,73.30
2023-04-15T22:56:21.713Z,65.40
2023-04-15T22:58:49.856Z,63.03
2023-04-15T23:01:18.390Z,64.57
2023-04-15T23:03:57.042Z,71.00
2023-04-15T23:06:33.370Z,61.95
2023-04-15T23:09:01.368Z,72.18
2023-04-15T23:11:30.912Z,76.10
2023-04-15T23:13:59.016Z,76.47
2023-04-15T23:16:28.153Z,78.40
2023-04-15T23:18:55.926Z,79.45
2023-04-15T23:21:25.935Z,82.07
2023-04-15T23:23:53.904Z,88.05
2023-04-15T23:26:21.634Z,78.03
2023-04-15T23:28:50.714Z,81.38
2023-04-15T23:31:18.548Z,73.07
2023-04-15T23:33:46.452Z,71.97
2023-04-15T23:36:14.155Z,70.07
2023-04-15T23:38:42.675Z,73.28
2023-04-15T23:41:11.946Z,59.22
2023-04-15T23:43:39.711Z,77.15
2023-04-15T23:46:08.838Z,77.60
2023-04-15T23:48:36.642Z,64.55
2023-04-15T23:51:04.935Z,80.18
2023-04-15T23:53:32.680Z,68.97
2023-04-15T23:56:00.451Z,74.63
2023-04-15T23:58:28.193Z,60.80
